CYCG

Castlegar / West Kootenay Regional Airport

Castlegar, British Columbia, Canada
METAR CYCG 240200Z VRB02KT 15SM FEW065CB SCT150 23/10 A2964 RMK CB1AC2 SLP034 DENSITY ALT 3200FT
Observed Flight Rules
May-24 @ 02:00 UTC (11 minutes ago) Visual Flight Rules
Wind Visibility Clouds
Variable at 2 knots 15 miles
  • Few at 6,500' AGL
  • Scattered at 15,000' AGL
Temperatures Readings
Current 23°C / 73°F
Dewpoint 10°C / 50°F
Humidity 44%
Altimeter 29.64" Hg
Pressure 1003.4 hPa
Elevation 495
METAR CYCG 240200Z VRB02KT 15SM FEW065CB SCT150 23/10 A2964 RMK CB1AC2 SLP034 DENSITY ALT 3200FT
Observed Flight Rules
May-24 @ 02:00 UTC
(11 minutes ago)
VFR
Wind Visibility
Variable at 2 knots 15 miles
Clouds
  • Few at 6,500' AGL
  • Scattered at 15,000' AGL
Temperature Dewpoint
23°C / 73°F 10°C / 50°F
Humidity Altimeter Pressure
44% 29.64" Hg 1003.4 hPa